Terminal Aerodrome Forecast
Issued by NWS Charleston, WV

Home | Current Version | Previous Version | Text Only | Print | Product List | Glossary On
Versions: 1 2 3 4 5 6 7 8 9 10 11 12 13 14 15 16 17 18 19 20 21 22 23 24 25 26 27
789
FTUS41 KRLX 211408 AAA
TAFPKB
TAF AMD
KPKB 211408Z 2114/2212 VRB03KT P6SM FEW040
     FM220300 00000KT P6SM SKC
     FM220700 00000KT 1/4SM FG VV001=

USA.gov is the U.S. government's official web portal to all federal, state and local government web resources and services.